Time;durP1;ratioP1;P1;durP2;ratioP2;P2;SDS_P1;SDS_P2;PMS_P1;PMS_P2;Temp;Humidity;BMP_temperature;BMP_pressure;BME280_temperature;BME280_humidity;BME280_pressure;Samples;Min_cycle;Max_cycle;Signal;HPM_P1;HPM_P2
2021/11/22 00:00:25;;;;;;;5.07;0.73;;;;;;;13.90;60.77;100888.34;4952969;29;20179;-73
2021/11/22 00:02:52;;;;;;;1.47;0.63;;;;;;;14.22;60.09;100898.75;4954060;28;20195;-73
2021/11/22 00:05:17;;;;;;;0.73;0.47;;;;;;;13.90;60.30;100899.06;4953265;29;20696;-73
2021/11/22 00:07:43;;;;;;;7.07;1.00;;;;;;;12.92;61.16;100887.47;4952970;29;20233;-73
2021/11/22 00:10:09;;;;;;;1.07;0.40;;;;;;;13.11;62.72;100906.81;4953803;28;20175;-72
2021/11/22 00:12:35;;;;;;;2.43;0.70;;;;;;;13.28;62.49;100916.50;4952669;28;20206;-72
2021/11/22 00:15:06;;;;;;;0.53;0.50;;;;;;;13.88;61.10;100914.41;4952591;29;20231;-72
2021/11/22 00:17:32;;;;;;;2.30;0.47;;;;;;;13.40;60.82;100911.25;4952573;29;20171;-72
2021/11/22 00:19:58;;;;;;;2.73;0.50;;;;;;;13.09;63.18;100931.03;4952832;29;20537;-71
2021/11/22 00:22:25;;;;;;;2.43;0.60;;;;;;;12.86;61.94;100915.50;4952490;28;20209;-72
2021/11/22 00:24:50;;;;;;;1.17;0.50;;;;;;;12.83;62.01;100921.03;4936689;29;20179;-72
2021/11/22 00:27:16;;;;;;;1.17;0.57;;;;;;;12.67;62.97;100929.16;4952541;29;20214;-72
2021/11/22 00:29:41;;;;;;;2.63;0.70;;;;;;;11.87;64.12;100926.69;4953671;29;20187;-73
2021/11/22 00:32:06;;;;;;;2.47;0.57;;;;;;;13.13;61.79;100932.56;4953517;28;20213;-72
2021/11/22 00:34:41;;;;;;;3.27;0.77;;;;;;;12.49;62.24;100932.91;4952472;29;20268;-72
2021/11/22 00:37:11;;;;;;;2.57;0.50;;;;;;;13.15;61.63;100948.53;4937591;29;20285;-73
2021/11/22 00:39:37;;;;;;;4.73;0.80;;;;;;;12.46;62.02;100950.00;4953720;28;20167;-72
2021/11/22 00:42:02;;;;;;;6.27;0.73;;;;;;;13.06;61.46;100949.97;4951110;28;20210;-73
2021/11/22 00:44:27;;;;;;;1.47;0.50;;;;;;;12.77;61.91;100967.81;4952210;29;20182;-72
2021/11/22 00:46:52;;;;;;;0.80;0.63;;;;;;;12.45;61.56;100958.13;4953109;29;20213;-73
2021/11/22 00:49:18;;;;;;;1.33;0.50;;;;;;;12.77;61.17;100964.25;4953426;29;20181;-72
2021/11/22 00:51:43;;;;;;;2.13;0.70;;;;;;;13.02;61.04;100971.69;4935856;29;20565;-72
2021/11/22 00:54:08;;;;;;;3.23;0.70;;;;;;;12.21;62.60;100985.34;4953222;28;20191;-72
2021/11/22 00:56:36;;;;;;;0.93;0.60;;;;;;;12.55;62.51;100980.72;4953242;28;20177;-73
2021/11/22 00:59:01;;;;;;;1.53;0.73;;;;;;;12.92;61.97;100983.91;4936062;29;20186;-73
2021/11/22 01:01:26;;;;;;;1.40;0.57;;;;;;;12.78;61.69;100993.63;4952274;28;20786;-73
2021/11/22 01:03:52;;;;;;;2.47;0.70;;;;;;;12.69;62.00;100993.31;4951913;29;20183;-72
2021/11/22 01:06:17;;;;;;;2.70;0.90;;;;;;;12.61;61.94;100992.88;4951840;28;20210;-72
2021/11/22 01:08:42;;;;;;;0.63;0.50;;;;;;;12.42;62.89;100990.44;4951787;29;20332;-72
2021/11/22 01:11:07;;;;;;;3.40;0.90;;;;;;;12.08;63.50;100997.72;4952127;28;20261;-72
2021/11/22 01:13:33;;;;;;;1.90;0.90;;;;;;;12.92;61.27;101005.31;4952999;29;20182;-72
2021/11/22 01:15:58;;;;;;;1.37;0.63;;;;;;;11.72;64.35;101007.75;4952914;29;20189;-71
2021/11/22 01:18:23;;;;;;;2.30;0.60;;;;;;;12.07;63.68;101011.19;4953190;29;20213;-72
2021/11/22 01:20:49;;;;;;;2.40;0.77;;;;;;;12.01;63.55;101012.38;4951859;28;20183;-72
2021/11/22 01:23:14;;;;;;;1.00;0.70;;;;;;;11.37;63.59;101007.84;4951681;29;20178;-72
2021/11/22 01:25:41;;;;;;;3.57;0.80;;;;;;;11.67;64.07;101023.19;4951990;29;20285;-72
2021/11/22 01:28:07;;;;;;;4.10;0.80;;;;;;;11.58;64.33;101028.09;4951504;29;20210;-72
2021/11/22 01:30:34;;;;;;;2.70;0.70;;;;;;;11.35;65.14;101017.75;4935814;29;20181;-72
2021/11/22 01:32:59;;;;;;;0.87;0.60;;;;;;;11.49;64.13;101020.53;4952803;28;20295;-72
2021/11/22 01:35:25;;;;;;;1.03;0.70;;;;;;;11.42;64.49;101018.28;4952786;28;20213;-72
2021/11/22 01:37:50;;;;;;;1.30;0.90;;;;;;;11.31;64.04;101018.88;4953462;28;20178;-72
2021/11/22 01:40:18;;;;;;;3.27;0.80;;;;;;;10.95;65.50;101025.19;4951918;29;20261;-71
2021/11/22 01:42:43;;;;;;;2.37;0.80;;;;;;;10.79;65.20;101024.25;4951865;28;20234;-72
2021/11/22 01:45:12;;;;;;;2.00;1.13;;;;;;;10.87;63.53;101018.50;4951513;29;20179;-72
2021/11/22 01:47:38;;;;;;;2.43;0.80;;;;;;;10.67;65.29;101032.84;4952953;28;20704;-72
2021/11/22 01:50:05;;;;;;;5.17;0.80;;;;;;;11.05;65.57;101046.06;4952800;28;20171;-72
2021/11/22 01:52:30;;;;;;;4.23;0.83;;;;;;;10.37;65.01;101037.03;4951077;28;20242;-72
2021/11/22 01:54:56;;;;;;;0.70;0.60;;;;;;;11.18;63.74;101047.19;4952283;29;20211;-73
2021/11/22 01:57:21;;;;;;;0.87;0.67;;;;;;;10.71;63.76;101049.56;4951200;29;20181;-72
2021/11/22 01:59:46;;;;;;;1.23;0.60;;;;;;;10.85;64.12;101050.63;4935269;29;20208;-72
2021/11/22 02:02:13;;;;;;;1.67;0.63;;;;;;;10.23;64.69;101057.25;4951002;28;20209;-72
2021/11/22 02:04:41;;;;;;;0.90;0.50;;;;;;;10.53;63.76;101060.25;4952720;28;20223;-72
2021/11/22 02:07:06;;;;;;;6.03;0.80;;;;;;;10.82;64.16;101060.59;4952554;28;20237;-72
2021/11/22 02:09:32;;;;;;;1.50;0.70;;;;;;;10.16;66.06;101073.59;4952971;28;20651;-72
2021/11/22 02:11:58;;;;;;;4.63;0.80;;;;;;;10.27;64.66;101064.16;4935271;28;20202;-73
2021/11/22 02:14:23;;;;;;;0.60;0.60;;;;;;;9.74;65.93;101068.44;4951556;29;20212;-73
2021/11/22 02:16:49;;;;;;;3.67;0.87;;;;;;;9.97;66.30;101081.56;4951093;29;20221;-72
2021/11/22 02:19:14;;;;;;;2.60;0.70;;;;;;;10.20;64.34;101076.06;4934880;29;20181;-72
2021/11/22 02:21:40;;;;;;;1.00;0.53;;;;;;;9.96;64.92;101075.38;4978784;23;20227;-68
2021/11/22 02:24:05;;;;;;;2.80;0.80;;;;;;;10.47;64.03;101086.38;4951198;29;20184;-69
2021/11/22 02:26:30;;;;;;;6.17;0.87;;;;;;;9.72;65.29;101089.84;4952077;29;20252;-68
2021/11/22 02:28:56;;;;;;;2.20;0.70;;;;;;;10.54;64.63;101098.47;4951543;29;20180;-68
2021/11/22 02:31:22;;;;;;;4.00;0.50;;;;;;;10.74;64.51;101103.69;4954512;28;20207;-69
2021/11/22 02:33:51;;;;;;;2.50;0.77;;;;;;;10.05;65.73;101111.44;4953709;28;20207;-69
2021/11/22 02:36:17;;;;;;;0.83;0.63;;;;;;;10.57;63.57;101091.19;4954025;28;20552;-69
2021/11/22 02:38:42;;;;;;;2.40;0.70;;;;;;;10.70;64.06;101115.44;4986410;28;20180;-69
2021/11/22 02:41:08;;;;;;;3.97;0.90;;;;;;;10.50;64.33;101107.56;4970068;28;20189;-69
2021/11/22 02:43:37;;;;;;;1.60;0.50;;;;;;;10.89;62.77;101118.97;4971623;28;20260;-69
2021/11/22 02:46:02;;;;;;;1.97;0.90;;;;;;;10.36;65.50;101123.34;4971447;28;20181;-69
2021/11/22 02:48:28;;;;;;;0.77;0.60;;;;;;;11.61;61.62;101120.63;4971362;28;20190;-69
2021/11/22 02:50:53;;;;;;;1.57;0.60;;;;;;;11.30;62.27;101121.34;4970195;28;20183;-69
2021/11/22 02:53:19;;;;;;;1.07;0.80;;;;;;;10.95;62.94;101126.66;4986069;28;20201;-70
2021/11/22 02:55:44;;;;;;;2.20;0.70;;;;;;;10.71;63.65;101127.00;4971256;28;20182;-69
2021/11/22 02:58:10;;;;;;;0.73;0.53;;;;;;;10.92;62.94;101131.28;4971331;28;20560;-69
2021/11/22 03:00:36;;;;;;;1.83;0.60;;;;;;;10.87;63.86;101144.88;4969790;28;20181;-69
2021/11/22 03:03:01;;;;;;;4.37;0.70;;;;;;;10.22;65.09;101140.88;4970090;28;20224;-69
2021/11/22 03:05:27;;;;;;;0.80;0.60;;;;;;;11.61;62.23;101147.38;4987721;28;20616;-69
2021/11/22 03:07:54;;;;;;;0.80;0.80;;;;;;;10.58;63.08;101146.28;4979072;28;20660;-69
2021/11/22 03:10:20;;;;;;;1.93;0.50;;;;;;;10.55;64.53;101154.44;4973776;28;20569;-69
2021/11/22 03:12:46;;;;;;;0.87;0.50;;;;;;;10.45;64.78;101157.63;4973610;28;20234;-69
2021/11/22 03:15:14;;;;;;;1.67;0.70;;;;;;;10.71;64.76;101159.91;4973348;28;20232;-69
2021/11/22 03:17:41;;;;;;;1.60;0.70;;;;;;;11.06;63.13;101154.63;4974528;28;20171;-69
2021/11/22 03:20:11;;;;;;;4.83;1.00;;;;;;;11.11;63.00;101155.28;4974142;28;20712;-69
2021/11/22 03:22:36;;;;;;;2.33;0.50;;;;;;;10.95;63.18;101169.41;4972845;28;20207;-69
2021/11/22 03:25:03;;;;;;;2.43;0.67;;;;;;;10.34;64.13;101158.97;4973952;28;20184;-69
2021/11/22 03:27:29;;;;;;;2.37;0.60;;;;;;;10.55;62.40;101157.09;4974195;28;20338;-69
2021/11/22 03:29:54;;;;;;;2.17;0.50;;;;;;;10.17;64.34;101169.53;4973745;28;20202;-69
2021/11/22 03:32:19;;;;;;;1.27;0.80;;;;;;;11.26;62.76;101168.75;4974116;28;20230;-70
2021/11/22 03:34:45;;;;;;;1.53;0.60;;;;;;;10.71;63.19;101164.38;4973845;28;20211;-68
2021/11/22 03:37:10;;;;;;;2.50;0.70;;;;;;;10.31;63.96;101172.47;4973778;28;20171;-69
2021/11/22 03:39:36;;;;;;;3.33;0.70;;;;;;;10.36;63.17;101163.38;4973947;28;20182;-69
2021/11/22 03:42:03;;;;;;;0.60;0.60;;;;;;;10.68;62.86;101186.75;4988976;28;20211;-69
2021/11/22 03:44:32;;;;;;;3.70;0.60;;;;;;;10.99;62.74;101177.25;4972524;28;20201;-70
2021/11/22 03:46:58;;;;;;;3.03;0.53;;;;;;;10.63;62.13;101178.09;4973509;28;20704;-69
2021/11/22 03:49:23;;;;;;;1.50;0.67;;;;;;;10.74;62.73;101188.25;4973654;28;20192;-69
2021/11/22 03:51:49;;;;;;;1.57;0.60;;;;;;;10.55;62.73;101194.47;4973883;28;20206;-69
2021/11/22 03:54:15;;;;;;;2.20;0.50;;;;;;;10.12;63.26;101197.38;4973862;28;20644;-68
2021/11/22 03:56:40;;;;;;;2.70;0.60;;;;;;;10.20;63.04;101200.53;4972438;28;20179;-69
2021/11/22 03:59:06;;;;;;;1.90;0.60;;;;;;;11.00;62.43;101200.34;4973869;28;20573;-69
2021/11/22 04:01:32;;;;;;;2.60;0.73;;;;;;;10.00;64.39;101204.09;4972960;28;20203;-69
2021/11/22 04:03:57;;;;;;;2.03;0.57;;;;;;;10.49;64.45;101202.78;4973439;28;20590;-68
2021/11/22 04:06:23;;;;;;;2.37;0.70;;;;;;;9.76;65.08;101198.06;4988367;28;20204;-69
2021/11/22 04:08:48;;;;;;;3.60;0.83;;;;;;;10.26;64.17;101205.63;4988615;28;20175;-69
2021/11/22 04:11:14;;;;;;;0.80;0.50;;;;;;;9.86;65.26;101212.72;4989536;28;20183;-69
2021/11/22 04:13:39;;;;;;;2.00;0.50;;;;;;;10.08;62.98;101204.63;4974517;28;20186;-69
2021/11/22 04:16:05;;;;;;;0.87;0.60;;;;;;;9.64;64.13;101212.75;4973397;28;20225;-69
2021/11/22 04:18:31;;;;;;;0.90;0.50;;;;;;;10.60;62.96;101220.94;4973492;28;20178;-69
2021/11/22 04:20:57;;;;;;;0.73;0.40;;;;;;;9.82;63.24;101216.44;4972495;28;20182;-69
2021/11/22 04:23:22;;;;;;;1.70;0.50;;;;;;;9.72;63.07;101223.13;4972340;28;20198;-69
2021/11/22 04:25:48;;;;;;;1.87;0.60;;;;;;;11.13;61.10;101225.50;4973650;28;20175;-69
2021/11/22 04:28:13;;;;;;;0.80;0.57;;;;;;;10.80;60.93;101223.56;4988532;28;20203;-69
2021/11/22 04:30:40;;;;;;;1.23;0.50;;;;;;;11.30;59.90;101225.56;4973265;28;20191;-69
2021/11/22 04:33:05;;;;;;;1.57;0.60;;;;;;;10.49;61.78;101233.94;4971824;28;20204;-69
2021/11/22 04:35:31;;;;;;;1.13;0.60;;;;;;;10.85;61.02;101240.22;4988604;28;20563;-69
2021/11/22 04:37:57;;;;;;;0.50;0.33;;;;;;;10.64;60.07;101234.06;4974141;28;20178;-69
2021/11/22 04:40:22;;;;;;;3.10;0.60;;;;;;;11.66;59.45;101251.41;4971969;28;20187;-69
2021/11/22 04:42:49;;;;;;;0.90;0.60;;;;;;;11.09;60.46;101250.66;4973010;28;20212;-69
2021/11/22 04:45:16;;;;;;;1.53;0.67;;;;;;;10.98;60.26;101250.31;4972055;28;20261;-70
2021/11/22 04:47:41;;;;;;;2.90;1.20;;;;;;;11.79;58.28;101250.72;4971590;28;20693;-68
2021/11/22 04:50:07;;;;;;;0.60;0.60;;;;;;;12.92;56.25;101263.38;4973208;28;20188;-68
2021/11/22 04:52:33;;;;;;;1.13;0.60;;;;;;;13.21;54.44;101264.44;4971536;28;20291;-69
2021/11/22 04:54:58;;;;;;;1.60;0.70;;;;;;;12.83;54.88;101259.41;4973109;28;20392;-68
2021/11/22 04:57:24;;;;;;;1.17;0.67;;;;;;;11.86;57.16;101264.63;4972895;28;20234;-69
2021/11/22 04:59:49;;;;;;;1.37;0.63;;;;;;;12.91;55.30;101274.19;4972907;28;20235;-69
2021/11/22 05:02:14;;;;;;;1.13;0.80;;;;;;;12.42;56.39;101280.41;4987438;28;20202;-69
2021/11/22 05:04:40;;;;;;;1.80;0.87;;;;;;;12.92;55.43;101283.94;4987979;28;20189;-68
2021/11/22 05:07:05;;;;;;;2.63;0.63;;;;;;;13.12;54.52;101281.91;4972929;28;20227;-68
2021/11/22 05:09:30;;;;;;;0.50;0.50;;;;;;;12.97;54.95;101279.19;4973595;28;20254;-69
2021/11/22 05:11:56;;;;;;;0.70;0.70;;;;;;;12.73;56.01;101284.09;4972370;28;20204;-69
2021/11/22 05:14:21;;;;;;;0.87;0.43;;;;;;;13.60;54.83;101293.47;4973153;28;20540;-70
2021/11/22 05:16:47;;;;;;;3.33;0.53;;;;;;;13.44;54.25;101279.22;4972689;28;20567;-69
2021/11/22 05:19:13;;;;;;;4.00;0.50;;;;;;;13.31;56.02;101303.19;4972593;28;20264;-69
2021/11/22 05:21:38;;;;;;;1.30;0.70;;;;;;;13.66;54.44;101297.59;4971077;28;20215;-69
2021/11/22 05:24:04;;;;;;;0.87;0.50;;;;;;;13.55;54.80;101308.97;4972883;28;20172;-69
2021/11/22 05:26:31;;;;;;;0.87;0.60;;;;;;;13.49;54.88;101303.09;4971150;28;20294;-69
2021/11/22 05:28:57;;;;;;;0.60;0.60;;;;;;;13.50;54.66;101303.00;4970823;28;20265;-69
2021/11/22 05:31:23;;;;;;;0.90;0.40;;;;;;;13.24;54.83;101292.91;4973278;28;20723;-68
2021/11/22 05:33:49;;;;;;;1.40;0.67;;;;;;;12.02;58.28;101308.38;4972351;28;20261;-70
2021/11/22 05:36:15;;;;;;;0.93;0.67;;;;;;;11.59;58.35;101307.84;4972717;28;20194;-70
2021/11/22 05:38:40;;;;;;;5.00;0.67;;;;;;;12.02;57.93;101316.41;4971429;28;20525;-69
2021/11/22 05:41:05;;;;;;;1.60;0.60;;;;;;;11.76;56.90;101300.78;4972411;28;20666;-70
2021/11/22 05:43:31;;;;;;;0.50;0.50;;;;;;;11.33;58.46;101316.28;4971380;28;20184;-70
2021/11/22 05:45:56;;;;;;;1.20;0.60;;;;;;;12.27;56.56;101309.81;4972457;28;20547;-69
2021/11/22 05:48:21;;;;;;;0.90;0.50;;;;;;;10.86;60.45;101343.44;4972949;28;20220;-71
2021/11/22 05:50:51;;;;;;;1.17;0.70;;;;;;;12.44;57.06;101334.72;4970856;28;20216;-70
2021/11/22 05:53:18;;;;;;;0.50;0.50;;;;;;;13.14;54.76;101327.38;4971059;28;20260;-69
2021/11/22 05:55:44;;;;;;;0.87;0.73;;;;;;;11.93;56.77;101330.28;4972419;28;20261;-69
2021/11/22 05:58:13;;;;;;;2.43;1.13;;;;;;;10.70;59.94;101358.38;4986743;28;20177;-69
2021/11/22 06:00:39;;;;;;;1.30;1.00;;;;;;;10.96;60.33;101358.09;4971197;28;20216;-69
2021/11/22 06:03:04;;;;;;;1.63;0.60;;;;;;;10.26;60.14;101347.03;4971865;28;20808;-69
2021/11/22 06:05:29;;;;;;;1.90;0.50;;;;;;;10.43;60.24;101346.31;4971855;28;20676;-69
2021/11/22 06:07:55;;;;;;;1.27;0.63;;;;;;;10.49;61.06;101359.38;4987019;28;20673;-69
2021/11/22 06:10:20;;;;;;;1.10;0.70;;;;;;;10.60;61.22;101354.41;4972381;28;20183;-69
2021/11/22 06:12:46;;;;;;;2.07;0.77;;;;;;;10.34;62.53;101372.44;4970916;28;20200;-69
2021/11/22 06:15:11;;;;;;;1.50;0.60;;;;;;;10.75;61.12;101364.38;4972361;28;20220;-69
2021/11/22 06:17:36;;;;;;;1.17;0.50;;;;;;;10.85;60.26;101364.88;4970654;28;20175;-69
2021/11/22 06:20:04;;;;;;;2.87;0.70;;;;;;;10.88;60.56;101375.41;4972318;28;20189;-69
2021/11/22 06:22:29;;;;;;;0.93;0.63;;;;;;;11.28;59.80;101372.59;4971651;28;20219;-68
2021/11/22 06:24:54;;;;;;;0.93;0.50;;;;;;;10.59;60.69;101377.56;4990096;28;20564;-69
2021/11/22 06:27:21;;;;;;;2.23;0.60;;;;;;;11.18;60.09;101382.00;4972248;28;20208;-69
2021/11/22 06:29:46;;;;;;;3.63;0.70;;;;;;;10.45;61.07;101382.66;4986751;28;20173;-70
2021/11/22 06:32:12;;;;;;;1.17;0.50;;;;;;;10.73;60.24;101382.28;4971972;28;20202;-69
2021/11/22 06:34:41;;;;;;;4.00;0.53;;;;;;;10.84;60.11;101385.34;4971800;28;20176;-70
2021/11/22 06:37:07;;;;;;;0.53;0.53;;;;;;;10.48;60.77;101395.88;4970757;28;20184;-70
2021/11/22 06:39:33;;;;;;;1.43;0.60;;;;;;;11.09;58.43;101393.09;4987625;28;20548;-70
2021/11/22 06:41:58;;;;;;;0.80;0.50;;;;;;;11.09;58.98;101403.78;4973631;28;20208;-69
2021/11/22 06:44:23;;;;;;;1.10;0.80;;;;;;;10.80;59.34;101402.47;4974801;28;20263;-70
2021/11/22 06:46:49;;;;;;;0.50;0.50;;;;;;;10.77;58.84;101407.91;4974587;28;20212;-70
2021/11/22 06:49:16;;;;;;;0.40;0.30;;;;;;;11.44;58.04;101407.47;4973396;28;20178;-70
2021/11/22 06:51:41;;;;;;;2.00;0.60;;;;;;;11.58;57.67;101414.88;4990169;28;20198;-69
2021/11/22 06:54:07;;;;;;;1.10;0.67;;;;;;;11.15;58.96;101422.22;4990596;28;20492;-69
2021/11/22 06:56:32;;;;;;;1.03;0.63;;;;;;;12.37;55.75;101426.16;4974363;28;20179;-69
2021/11/22 06:58:57;;;;;;;2.57;0.80;;;;;;;11.26;58.29;101435.09;4989586;28;20175;-69
2021/11/22 07:01:23;;;;;;;1.73;0.70;;;;;;;11.94;56.62;101436.31;4974352;28;20254;-69
2021/11/22 07:03:48;;;;;;;0.70;0.50;;;;;;;11.79;56.25;101429.03;4973374;28;20501;-69
2021/11/22 07:06:14;;;;;;;0.93;0.77;;;;;;;11.76;56.43;101439.84;4974180;28;20181;-69
2021/11/22 07:08:39;;;;;;;0.77;0.50;;;;;;;12.11;55.59;101441.69;4974654;28;20647;-69
2021/11/22 07:11:04;;;;;;;1.77;0.77;;;;;;;12.67;54.70;101439.78;4974379;28;20246;-69
2021/11/22 07:13:32;;;;;;;0.73;0.50;;;;;;;11.87;55.25;101448.25;4973117;28;20181;-70
2021/11/22 07:15:58;;;;;;;3.87;0.83;;;;;;;11.94;55.91;101467.56;4989089;28;20189;-70
2021/11/22 07:18:23;;;;;;;0.83;0.60;;;;;;;12.40;54.05;101453.63;4974392;28;20542;-69
2021/11/22 07:20:48;;;;;;;1.93;0.73;;;;;;;12.51;54.97;101461.09;4974497;28;20192;-68
2021/11/22 07:23:15;;;;;;;1.43;0.60;;;;;;;11.54;55.81;101459.59;4973860;28;20251;-68
2021/11/22 07:25:42;;;;;;;1.63;0.60;;;;;;;11.07;57.15;101469.78;4973108;28;20203;-69
2021/11/22 07:28:07;;;;;;;1.03;0.67;;;;;;;11.32;56.95;101472.22;4974260;28;20286;-69
2021/11/22 07:30:32;;;;;;;0.83;0.67;;;;;;;11.22;56.39;101478.91;4974055;28;20280;-70
2021/11/22 07:32:58;;;;;;;1.37;0.70;;;;;;;10.46;57.61;101479.59;4989270;28;20201;-69
2021/11/22 07:35:24;;;;;;;1.73;1.30;;;;;;;11.56;56.93;101492.47;4989579;28;20181;-70
2021/11/22 07:37:50;;;;;;;0.90;0.70;;;;;;;10.84;58.25;101480.63;4974187;28;20193;-69
2021/11/22 07:40:21;;;;;;;1.60;0.90;;;;;;;11.48;56.96;101493.75;4974930;28;20256;-70
2021/11/22 07:42:46;;;;;;;1.03;0.70;;;;;;;10.94;58.02;101493.50;4973012;28;20198;-69
2021/11/22 07:45:11;;;;;;;0.97;0.60;;;;;;;9.99;59.40;101487.69;4989513;28;20661;-69
2021/11/22 07:47:36;;;;;;;1.27;0.60;;;;;;;10.78;57.78;101492.44;4974232;28;20196;-70
2021/11/22 07:50:03;;;;;;;1.63;0.80;;;;;;;11.18;57.40;101496.03;4974301;28;20242;-69
2021/11/22 07:52:29;;;;;;;0.70;0.70;;;;;;;10.86;57.14;101500.13;4973456;28;20225;-70
2021/11/22 07:54:54;;;;;;;1.27;0.73;;;;;;;10.53;58.61;101499.75;4974421;28;20311;-69
2021/11/22 07:57:19;;;;;;;2.77;0.80;;;;;;;11.53;56.57;101505.97;4989157;28;20204;-69
2021/11/22 07:59:45;;;;;;;0.50;0.50;;;;;;;10.58;57.45;101490.63;4974225;28;20179;-68
2021/11/22 08:02:10;;;;;;;0.50;0.50;;;;;;;11.65;55.27;101501.88;4974164;28;20207;-70
2021/11/22 08:04:35;;;;;;;1.17;0.50;;;;;;;11.75;54.86;101505.84;4989649;28;20175;-69
2021/11/22 08:07:02;;;;;;;0.93;0.60;;;;;;;11.06;56.42;101499.22;4974026;28;20258;-69
2021/11/22 08:09:30;;;;;;;0.67;0.50;;;;;;;11.91;55.43;101519.41;4973740;28;20170;-69
2021/11/22 08:12:14;;;;;;;0.63;0.50;;;;;;;12.44;53.67;101508.75;4972129;28;20208;-70
2021/11/22 08:14:40;;;;;;;1.63;0.70;;;;;;;11.75;55.43;101529.91;4986465;28;20540;-69
2021/11/22 08:17:07;;;;;;;0.60;0.60;;;;;;;12.62;52.71;101520.31;4991827;28;20169;-69
2021/11/22 08:19:33;;;;;;;0.90;0.60;;;;;;;12.45;53.18;101528.34;4974865;28;20185;-69
2021/11/22 08:21:58;;;;;;;2.17;0.73;;;;;;;11.72;53.40;101522.03;4992753;23;20231;-72
2021/11/22 08:24:26;;;;;;;1.37;0.63;;;;;;;12.68;52.86;101536.13;4975669;28;20653;-72
2021/11/22 08:26:52;;;;;;;1.33;0.70;;;;;;;12.74;52.43;101540.28;4993409;28;20228;-73
2021/11/22 08:29:17;;;;;;;0.90;0.60;;;;;;;13.72;50.82;101536.00;4991962;28;20185;-71
2021/11/22 08:31:42;;;;;;;0.90;0.60;;;;;;;13.40;51.29;101544.00;4991986;28;20183;-71
2021/11/22 08:34:08;;;;;;;1.30;0.70;;;;;;;13.38;51.37;101545.00;4993281;28;20183;-71
2021/11/22 08:36:33;;;;;;;3.80;0.60;;;;;;;13.48;51.31;101545.41;4993178;28;20177;-73
2021/11/22 08:38:58;;;;;;;0.60;0.50;;;;;;;12.56;52.50;101542.06;4992164;28;20181;-71
2021/11/22 08:41:26;;;;;;;1.67;0.77;;;;;;;12.06;53.70;101548.09;4992826;28;20548;-71
2021/11/22 08:43:52;;;;;;;1.03;0.50;;;;;;;11.51;54.79;101541.72;4992955;28;20190;-72
2021/11/22 08:46:17;;;;;;;0.90;0.53;;;;;;;11.80;54.13;101553.78;4992025;28;20185;-73
2021/11/22 08:48:42;;;;;;;1.27;0.50;;;;;;;11.36;55.32;101562.00;4997674;28;20187;-72
2021/11/22 08:51:08;;;;;;;0.70;0.60;;;;;;;12.26;53.62;101563.16;4994574;28;20185;-71
2021/11/22 08:53:34;;;;;;;3.57;0.73;;;;;;;12.75;53.13;101571.47;4993412;28;20242;-72
2021/11/22 08:56:00;;;;;;;3.00;0.50;;;;;;;12.36;52.55;101567.16;4992290;28;20181;-73
2021/11/22 08:58:25;;;;;;;0.60;0.60;;;;;;;13.31;50.68;101560.53;4994748;28;20661;-72
2021/11/22 09:00:51;;;;;;;0.50;0.40;;;;;;;12.96;52.57;101581.09;5008896;28;20261;-74
2021/11/22 09:03:16;;;;;;;0.50;0.50;;;;;;;11.88;54.51;101579.22;4994463;28;20193;-72
2021/11/22 09:05:42;;;;;;;1.20;0.60;;;;;;;12.13;52.94;101578.09;4994029;28;20555;-73
2021/11/22 09:08:08;;;;;;;0.63;0.60;;;;;;;11.78;54.00;101587.75;4997658;28;20239;-72
2021/11/22 09:10:33;;;;;;;1.23;0.70;;;;;;;11.47;54.79;101577.53;4995240;28;20223;-72
2021/11/22 09:12:58;;;;;;;2.03;0.60;;;;;;;13.01;53.53;101591.59;4995282;28;20189;-73
2021/11/22 09:15:24;;;;;;;0.33;0.33;;;;;;;12.59;52.84;101586.56;4996073;28;20215;-71
2021/11/22 09:17:50;;;;;;;0.67;0.40;;;;;;;12.96;51.26;101585.59;4993740;28;20174;-71
2021/11/22 09:20:16;;;;;;;1.60;0.50;;;;;;;13.28;51.13;101584.84;4991077;28;20180;-73
2021/11/22 09:22:42;;;;;;;0.60;0.40;;;;;;;13.30;50.84;101584.75;4974300;28;20618;-69
2021/11/22 09:25:09;;;;;;;0.67;0.40;;;;;;;12.51;52.53;101594.97;4992545;28;20654;-72
2021/11/22 09:27:34;;;;;;;0.40;0.40;;;;;;;13.14;52.15;101598.06;4974550;28;20278;-71
2021/11/22 09:30:00;;;;;;;1.23;0.53;;;;;;;13.93;50.25;101601.03;4991095;28;20639;-71
2021/11/22 09:32:25;;;;;;;0.40;0.40;;;;;;;13.52;49.10;101573.78;4974529;28;20201;-72
2021/11/22 09:34:50;;;;;;;0.23;0.23;;;;;;;14.00;48.63;101584.50;4991766;28;20192;-72
2021/11/22 09:37:16;;;;;;;0.80;0.50;;;;;;;14.38;48.21;101597.63;4974160;28;20177;-72
2021/11/22 09:39:43;;;;;;;0.40;0.40;;;;;;;15.26;46.87;101597.84;4974311;28;20174;-72
2021/11/22 09:42:08;;;;;;;1.33;0.50;;;;;;;13.73;48.74;101591.38;4990429;28;20204;-71
2021/11/22 09:44:33;;;;;;;0.80;0.50;;;;;;;13.51;48.60;101593.50;4990436;28;20178;-71
2021/11/22 09:46:59;;;;;;;0.63;0.47;;;;;;;15.04;46.77;101600.06;4990182;28;20194;-72
2021/11/22 09:49:24;;;;;;;4.40;0.50;;;;;;;13.99;48.07;101598.88;4974076;28;20678;-72
2021/11/22 09:51:50;;;;;;;0.50;0.50;;;;;;;14.17;47.33;101588.97;4990704;28;20751;-72
2021/11/22 09:54:16;;;;;;;0.50;0.50;;;;;;;15.07;45.98;101597.19;4990290;28;20182;-72
2021/11/22 09:56:41;;;;;;;2.77;0.63;;;;;;;15.77;45.11;101589.38;4973800;28;20177;-72
2021/11/22 09:59:07;;;;;;;0.50;0.40;;;;;;;15.42;45.40;101591.53;4990025;28;20242;-72
2021/11/22 10:01:35;;;;;;;0.80;0.50;;;;;;;14.32;46.68;101612.25;4990089;28;20237;-72
2021/11/22 10:04:14;;;;;;;0.43;0.37;;;;;;;15.80;44.48;101611.56;4991256;28;20201;-72
2021/11/22 10:06:55;;;;;;;1.90;0.63;;;;;;;16.04;43.32;101608.31;4989972;28;20274;-72
2021/11/22 10:09:40;;;;;;;0.70;0.40;;;;;;;14.34;46.23;101601.44;4990277;28;20616;-72
2021/11/22 10:12:11;;;;;;;1.90;0.53;;;;;;;13.75;48.31;101627.03;4973908;28;20747;-72
2021/11/22 10:14:50;;;;;;;0.57;0.40;;;;;;;13.51;45.86;101605.09;4991353;28;20216;-72
2021/11/22 10:17:24;;;;;;;0.83;0.40;;;;;;;12.34;47.89;101608.31;4991077;28;20215;-72
2021/11/22 10:20:11;;;;;;;2.37;0.47;;;;;;;12.90;47.60;101626.97;4991134;28;20172;-72
2021/11/22 10:23:06;;;;;;;1.10;0.53;;;;;;;12.03;49.66;101630.31;4990652;28;20225;-72
2021/11/22 10:25:37;;;;;;;0.33;0.33;;;;;;;13.94;46.34;101626.94;4992128;28;20165;-74
2021/11/22 10:28:11;;;;;;;0.43;0.43;;;;;;;11.80;49.12;101617.97;4993158;28;20196;-73
2021/11/22 10:30:41;;;;;;;1.97;0.70;;;;;;;13.16;47.64;101628.34;4991404;28;20172;-72
2021/11/22 10:33:08;;;;;;;0.53;0.50;;;;;;;12.79;48.06;101615.91;4992434;28;20671;-72
2021/11/22 10:35:35;;;;;;;0.83;0.40;;;;;;;12.32;49.49;101624.47;4991847;28;20181;-73
2021/11/22 10:38:21;;;;;;;3.20;0.40;;;;;;;13.70;47.66;101631.78;4992443;28;20177;-72
2021/11/22 10:40:53;;;;;;;0.70;0.57;;;;;;;14.13;46.12;101621.44;4991565;28;20217;-72
2021/11/22 10:43:19;;;;;;;0.50;0.47;;;;;;;13.39;46.48;101621.84;4990324;28;20617;-73
2021/11/22 10:45:47;;;;;;;1.43;0.40;;;;;;;16.97;41.65;101637.25;4991337;28;20183;-72
2021/11/22 10:48:26;;;;;;;0.70;0.50;;;;;;;15.81;42.92;101621.38;4993860;28;20210;-73
2021/11/22 10:51:19;;;;;;;0.93;0.50;;;;;;;20.35;38.46;101647.31;4990550;28;20162;-72
2021/11/22 10:53:47;;;;;;;7.30;0.50;;;;;;;16.80;41.55;101644.66;4989908;28;20251;-72
2021/11/22 10:56:15;;;;;;;0.40;0.40;;;;;;;17.88;40.20;101649.88;4989715;28;20231;-72
2021/11/22 10:58:46;;;;;;;0.90;0.50;;;;;;;19.13;38.61;101650.66;4972968;28;20650;-72
2021/11/22 11:01:19;;;;;;;0.47;0.30;;;;;;;16.73;41.18;101653.25;4989339;28;20177;-72
2021/11/22 11:04:19;;;;;;;1.73;0.50;;;;;;;12.13;47.78;101663.72;4992778;28;20208;-72
2021/11/22 11:06:59;;;;;;;0.30;0.30;;;;;;;13.37;47.45;101671.97;4976460;28;20198;-73
2021/11/22 11:09:27;;;;;;;0.50;0.40;;;;;;;14.42;46.23;101671.69;4993028;28;20256;-73
2021/11/22 11:11:59;;;;;;;2.40;0.60;;;;;;;15.76;44.00;101652.22;4993131;28;20198;-73
2021/11/22 11:14:26;;;;;;;0.30;0.30;;;;;;;20.14;39.29;101668.03;4993961;28;20603;-73
2021/11/22 11:16:53;;;;;;;2.05;0.70;;;;;;;22.00;35.63;101658.69;4992023;28;20213;-73
2021/11/22 11:19:19;;;;;;;0.70;0.40;;;;;;;20.05;36.53;101650.63;4990234;28;20394;-71
2021/11/22 11:21:49;;;;;;;1.80;0.30;;;;;;;22.85;33.91;101657.44;4991539;28;20221;-73
2021/11/22 11:24:16;;;;;;;0.30;0.30;;;;;;;21.74;35.04;101665.53;4989470;28;20195;-71